Time;durP1;ratioP1;P1;durP2;ratioP2;P2;SDS_P1;SDS_P2;PMS_P1;PMS_P2;Temp;Humidity;BMP_temperature;BMP_pressure;BME280_temperature;BME280_humidity;BME280_pressure;Samples;Min_cycle;Max_cycle;Signal;HPM_P1;HPM_P2
2024/02/15 00:01:18;;;;;;;;;;;14.20;51.40;;;;;;5035254;28;19934;-87
2024/02/15 00:03:48;;;;;;;;;;;14.30;50.60;;;;;;5018386;28;19933;-75
2024/02/15 00:06:16;;;;;;;;;;;14.40;50.50;;;;;;5016856;28;19964;-80
2024/02/15 00:08:45;;;;;;;;;;;14.40;50.40;;;;;;4997070;28;20457;-84
2024/02/15 00:11:14;;;;;;;;;;;14.40;50.30;;;;;;5004649;28;19925;-81
2024/02/15 00:13:43;;;;;;;;;;;14.50;50.60;;;;;;5013531;28;19925;-80
2024/02/15 00:16:14;;;;;;;;;;;14.50;50.30;;;;;;5003753;28;19933;-80
2024/02/15 00:18:43;;;;;;;;;;;14.50;50.30;;;;;;5014702;28;20358;-85
2024/02/15 00:21:12;;;;;;;;;;;14.30;50.20;;;;;;5010363;28;19940;-83
2024/02/15 00:23:42;;;;;;;;;;;14.10;50.40;;;;;;5015705;28;20016;-81
2024/02/15 00:26:11;;;;;;;;;;;14.00;50.70;;;;;;4994149;28;20411;-76
2024/02/15 00:28:43;;;;;;;;;;;13.90;50.90;;;;;;5009166;28;19939;-78
2024/02/15 00:31:11;;;;;;;;;;;13.80;51.10;;;;;;5008010;28;19947;-79
2024/02/15 00:33:40;;;;;;;;;;;13.80;51.00;;;;;;5005313;28;19964;-79
2024/02/15 00:36:10;;;;;;;;;;;13.80;51.00;;;;;;5004285;28;19937;-73
2024/02/15 00:38:39;;;;;;;;;;;13.90;51.00;;;;;;5028599;28;20529;-74
2024/02/15 00:41:07;;;;;;;;;;;13.90;50.90;;;;;;4998544;28;20027;-79
2024/02/15 00:43:36;;;;;;;;;;;14.00;51.00;;;;;;5013647;28;19964;-77
2024/02/15 00:46:06;;;;;;;;;;;14.00;50.90;;;;;;5002245;28;20122;-78
2024/02/15 00:48:34;;;;;;;;;;;14.10;50.80;;;;;;5011412;28;19961;-76
2024/02/15 00:51:03;;;;;;;;;;;14.10;51.00;;;;;;5008347;28;19925;-76
2024/02/15 00:53:31;;;;;;;;;;;14.10;50.80;;;;;;5010399;28;20014;-77
2024/02/15 00:56:00;;;;;;;;;;;14.20;50.90;;;;;;5020613;28;19925;-76
2024/02/15 00:58:28;;;;;;;;;;;14.20;50.80;;;;;;5009372;28;19972;-79
2024/02/15 01:00:56;;;;;;;;;;;14.20;50.80;;;;;;5013446;28;19925;-81
2024/02/15 01:03:26;;;;;;;;;;;14.10;50.80;;;;;;5016283;28;20032;-83
2024/02/15 01:05:54;;;;;;;;;;;14.00;50.90;;;;;;5008790;28;19939;-78
2024/02/15 01:08:23;;;;;;;;;;;13.80;51.00;;;;;;5011566;28;19932;-78
2024/02/15 01:10:52;;;;;;;;;;;13.80;51.20;;;;;;5010073;28;19925;-75
2024/02/15 01:13:20;;;;;;;;;;;13.70;51.20;;;;;;5011707;28;20402;-78
2024/02/15 01:15:49;;;;;;;;;;;13.70;51.20;;;;;;5003988;28;19933;-79
2024/02/15 01:18:18;;;;;;;;;;;13.70;51.20;;;;;;5002410;28;19971;-75
2024/02/15 01:20:47;;;;;;;;;;;13.80;51.10;;;;;;5011208;28;19925;-75
2024/02/15 01:23:16;;;;;;;;;;;13.90;51.20;;;;;;5017529;28;19925;-75
2024/02/15 01:25:45;;;;;;;;;;;13.90;51.10;;;;;;5008116;28;19967;-75
2024/02/15 01:28:14;;;;;;;;;;;14.00;51.20;;;;;;5004702;28;21643;-76
2024/02/15 01:30:43;;;;;;;;;;;14.00;51.00;;;;;;5013549;28;20000;-76
2024/02/15 01:33:12;;;;;;;;;;;14.00;50.90;;;;;;5008322;28;19929;-78
2024/02/15 01:35:40;;;;;;;;;;;14.10;51.00;;;;;;5013446;28;19936;-75
2024/02/15 01:38:10;;;;;;;;;;;14.10;50.90;;;;;;5006228;28;19965;-76
2024/02/15 01:40:39;;;;;;;;;;;14.10;50.80;;;;;;5016103;28;20150;-74
2024/02/15 01:43:07;;;;;;;;;;;14.10;50.80;;;;;;5013384;28;19940;-75
2024/02/15 01:45:35;;;;;;;;;;;14.10;50.80;;;;;;5032810;28;19968;-76
2024/02/15 01:48:05;;;;;;;;;;;14.10;51.10;;;;;;5005189;28;19940;-76
2024/02/15 01:50:34;;;;;;;;;;;14.10;50.90;;;;;;5013749;28;19937;-74
2024/02/15 01:53:05;;;;;;;;;;;14.10;50.90;;;;;;5021393;28;19925;-76
2024/02/15 01:55:35;;;;;;;;;;;14.10;50.90;;;;;;5008721;28;19929;-75
2024/02/15 01:58:04;;;;;;;;;;;14.20;51.00;;;;;;5025416;28;20071;-74
2024/02/15 02:00:32;;;;;;;;;;;14.20;50.90;;;;;;5013536;28;19925;-75
2024/02/15 02:03:02;;;;;;;;;;;14.20;50.80;;;;;;5032808;28;19933;-74
2024/02/15 02:05:31;;;;;;;;;;;14.20;50.70;;;;;;5013396;28;20699;-75
2024/02/15 02:08:04;;;;;;;;;;;14.10;50.70;;;;;;5012883;28;19929;-73
2024/02/15 02:10:33;;;;;;;;;;;14.10;50.80;;;;;;5010009;28;20027;-75
2024/02/15 02:13:03;;;;;;;;;;;14.00;50.90;;;;;;5012315;28;19929;-75
2024/02/15 02:15:32;;;;;;;;;;;14.00;50.90;;;;;;5009323;28;20032;-75
2024/02/15 02:18:01;;;;;;;;;;;14.00;50.90;;;;;;5012474;28;20019;-74
2024/02/15 02:20:30;;;;;;;;;;;14.00;50.90;;;;;;5010146;28;19936;-79
2024/02/15 02:23:07;;;;;;;;;;;14.00;50.90;;;;;;5009650;28;19929;-75
2024/02/15 02:25:37;;;;;;;;;;;14.00;50.90;;;;;;5012778;28;19929;-76
2024/02/15 02:28:07;;;;;;;;;;;14.00;50.90;;;;;;5012866;28;19936;-75
2024/02/15 02:30:35;;;;;;;;;;;13.90;50.90;;;;;;5009299;28;19930;-76
2024/02/15 02:33:07;;;;;;;;;;;13.90;50.90;;;;;;5013622;28;20234;-76
2024/02/15 02:35:36;;;;;;;;;;;13.80;51.00;;;;;;5015366;28;20039;-75
2024/02/15 02:38:05;;;;;;;;;;;13.80;51.10;;;;;;5010285;28;19936;-76
2024/02/15 02:40:33;;;;;;;;;;;13.80;51.10;;;;;;5007365;28;20342;-74
2024/02/15 02:43:04;;;;;;;;;;;13.80;51.10;;;;;;5005966;28;19929;-76
2024/02/15 02:45:32;;;;;;;;;;;13.80;51.20;;;;;;5014687;28;19936;-76
2024/02/15 02:48:00;;;;;;;;;;;13.80;51.20;;;;;;5016299;28;19929;-76
2024/02/15 02:50:29;;;;;;;;;;;13.80;51.20;;;;;;5007007;28;20556;-75
2024/02/15 02:52:57;;;;;;;;;;;13.70;51.10;;;;;;5014913;28;19933;-76
2024/02/15 02:55:27;;;;;;;;;;;13.70;51.10;;;;;;5033145;28;20697;-76
2024/02/15 02:57:56;;;;;;;;;;;13.70;51.20;;;;;;5015742;28;19936;-76
2024/02/15 03:00:27;;;;;;;;;;;13.60;51.20;;;;;;5011670;28;19933;-75
2024/02/15 03:02:56;;;;;;;;;;;13.60;51.20;;;;;;5013827;28;19929;-75
2024/02/15 03:05:25;;;;;;;;;;;13.60;51.30;;;;;;5009955;28;20756;-76
2024/02/15 03:07:53;;;;;;;;;;;13.50;51.30;;;;;;5017317;28;19935;-76
2024/02/15 03:10:21;;;;;;;;;;;13.50;51.30;;;;;;5004637;28;20450;-76
2024/02/15 03:12:50;;;;;;;;;;;13.50;52.00;;;;;;5011788;28;20055;-77
2024/02/15 03:15:18;;;;;;;;;;;13.50;51.30;;;;;;5008683;28;20023;-75
2024/02/15 03:17:48;;;;;;;;;;;13.50;51.30;;;;;;5013750;28;19933;-75
2024/02/15 03:20:21;;;;;;;;;;;13.50;51.20;;;;;;5016480;28;20009;-79
2024/02/15 03:22:54;;;;;;;;;;;13.40;51.10;;;;;;5016869;28;19933;-76
2024/02/15 03:25:23;;;;;;;;;;;13.40;51.20;;;;;;5003413;28;19936;-76
2024/02/15 03:27:53;;;;;;;;;;;13.30;51.20;;;;;;5012926;28;19930;-76
2024/02/15 03:30:21;;;;;;;;;;;13.30;51.30;;;;;;5012909;28;19969;-76
2024/02/15 03:32:52;;;;;;;;;;;13.30;51.30;;;;;;5010102;28;19933;-77
2024/02/15 03:35:22;;;;;;;;;;;13.30;51.30;;;;;;5001305;28;20028;-75
2024/02/15 03:37:51;;;;;;;;;;;13.30;51.50;;;;;;5012466;28;19974;-79
2024/02/15 03:40:20;;;;;;;;;;;13.20;51.50;;;;;;5011968;28;19937;-78
2024/02/15 03:42:50;;;;;;;;;;;13.20;51.50;;;;;;5012153;28;20848;-77
2024/02/15 03:45:18;;;;;;;;;;;13.30;51.50;;;;;;5012752;28;19936;-78
2024/02/15 03:47:47;;;;;;;;;;;13.30;51.50;;;;;;5009903;28;20150;-78
2024/02/15 03:50:18;;;;;;;;;;;13.40;51.30;;;;;;5014053;28;19929;-77
2024/02/15 03:52:47;;;;;;;;;;;13.30;51.30;;;;;;5016176;28;20036;-78
2024/02/15 03:55:15;;;;;;;;;;;13.30;51.30;;;;;;5009932;28;19929;-75
2024/02/15 03:57:45;;;;;;;;;;;13.30;51.30;;;;;;5020462;28;19997;-78
2024/02/15 04:00:15;;;;;;;;;;;13.30;51.30;;;;;;5008667;28;20058;-77
2024/02/15 04:02:44;;;;;;;;;;;13.30;51.30;;;;;;5011278;28;20079;-77
2024/02/15 04:05:12;;;;;;;;;;;13.40;51.30;;;;;;5013266;28;20657;-77
2024/02/15 04:07:43;;;;;;;;;;;13.40;51.20;;;;;;5001364;28;19933;-77
2024/02/15 04:10:12;;;;;;;;;;;13.40;51.20;;;;;;5025811;28;19937;-78
2024/02/15 04:12:41;;;;;;;;;;;13.30;51.20;;;;;;5012366;28;20019;-78
2024/02/15 04:15:14;;;;;;;;;;;13.30;51.30;;;;;;5028238;28;19939;-79
2024/02/15 04:17:44;;;;;;;;;;;13.30;51.30;;;;;;5010599;28;19930;-78
2024/02/15 04:20:14;;;;;;;;;;;13.20;51.30;;;;;;5022356;28;20538;-78
2024/02/15 04:22:44;;;;;;;;;;;13.30;51.30;;;;;;5011037;28;20375;-78
2024/02/15 04:25:16;;;;;;;;;;;13.40;51.30;;;;;;5017084;28;20362;-79
2024/02/15 04:27:46;;;;;;;;;;;13.40;51.50;;;;;;5008685;28;19932;-77
2024/02/15 04:30:15;;;;;;;;;;;13.40;51.30;;;;;;5004885;28;19925;-80
2024/02/15 04:32:44;;;;;;;;;;;13.50;51.40;;;;;;5015079;28;20317;-80
2024/02/15 04:35:14;;;;;;;;;;;13.50;51.30;;;;;;5011054;28;19930;-79
2024/02/15 04:37:43;;;;;;;;;;;13.60;51.30;;;;;;5012820;28;19968;-79
2024/02/15 04:40:13;;;;;;;;;;;13.60;51.40;;;;;;5006725;28;19999;-79
2024/02/15 04:42:44;;;;;;;;;;;13.70;51.30;;;;;;5024397;28;19933;-80
2024/02/15 04:45:14;;;;;;;;;;;13.70;51.30;;;;;;5006629;28;19929;-79
2024/02/15 04:47:45;;;;;;;;;;;13.80;51.30;;;;;;5005841;28;19983;-78
2024/02/15 04:50:18;;;;;;;;;;;13.90;51.20;;;;;;5009008;28;19929;-81
2024/02/15 04:52:49;;;;;;;;;;;13.90;51.10;;;;;;5009155;28;19929;-79
2024/02/15 04:55:18;;;;;;;;;;;13.90;51.10;;;;;;5008146;28;19933;-77
2024/02/15 04:57:48;;;;;;;;;;;13.90;51.10;;;;;;5013370;28;20396;-80
2024/02/15 05:00:20;;;;;;;;;;;14.00;51.10;;;;;;5005774;28;19937;-77
2024/02/15 05:02:49;;;;;;;;;;;14.00;51.10;;;;;;5008452;28;19933;-78
2024/02/15 05:05:18;;;;;;;;;;;14.00;51.00;;;;;;5010276;28;19937;-78
2024/02/15 05:07:49;;;;;;;;;;;13.90;50.90;;;;;;5012789;28;20017;-77
2024/02/15 05:10:17;;;;;;;;;;;14.00;51.10;;;;;;5011858;28;19940;-80
2024/02/15 05:12:47;;;;;;;;;;;13.90;51.00;;;;;;5024351;28;19925;-77
2024/02/15 05:15:17;;;;;;;;;;;13.90;51.00;;;;;;5009808;28;20012;-78
2024/02/15 05:17:47;;;;;;;;;;;14.00;51.00;;;;;;5011444;28;19972;-79
2024/02/15 05:20:16;;;;;;;;;;;14.00;51.20;;;;;;5010169;28;19929;-77
2024/02/15 05:22:45;;;;;;;;;;;14.10;51.00;;;;;;5020442;28;19933;-81
2024/02/15 05:25:22;;;;;;;;;;;14.10;50.90;;;;;;5011685;28;19921;-78
2024/02/15 05:27:54;;;;;;;;;;;14.10;50.90;;;;;;5019397;28;19925;-78
2024/02/15 05:30:24;;;;;;;;;;;14.00;50.80;;;;;;5019930;28;20387;-76
2024/02/15 05:32:53;;;;;;;;;;;14.00;50.80;;;;;;5018219;28;19952;-78
2024/02/15 05:35:24;;;;;;;;;;;14.00;50.90;;;;;;5019968;28;19929;-79
2024/02/15 05:37:53;;;;;;;;;;;13.90;50.90;;;;;;5012693;28;19957;-78
2024/02/15 05:40:23;;;;;;;;;;;13.90;50.90;;;;;;5020517;28;19967;-79
2024/02/15 05:42:55;;;;;;;;;;;13.80;51.00;;;;;;5025287;28;19932;-79
2024/02/15 05:45:32;;;;;;;;;;;13.80;51.00;;;;;;5025188;28;20342;-78
2024/02/15 05:48:01;;;;;;;;;;;13.80;51.00;;;;;;5015495;28;20040;-76
2024/02/15 05:50:31;;;;;;;;;;;13.80;51.10;;;;;;5019200;28;20422;-77
2024/02/15 05:53:01;;;;;;;;;;;13.80;51.00;;;;;;5018373;28;19933;-77
2024/02/15 05:55:34;;;;;;;;;;;13.80;51.10;;;;;;5017928;28;20365;-77
2024/02/15 05:58:03;;;;;;;;;;;13.90;51.10;;;;;;5019217;28;19929;-78
2024/02/15 06:00:33;;;;;;;;;;;13.90;51.10;;;;;;5010289;28;19925;-77
2024/02/15 06:03:03;;;;;;;;;;;14.00;51.10;;;;;;5022053;28;19929;-77
2024/02/15 06:05:32;;;;;;;;;;;14.00;51.00;;;;;;5012025;28;19926;-76
2024/02/15 06:08:00;;;;;;;;;;;14.00;51.00;;;;;;5018101;28;19929;-76
2024/02/15 06:10:30;;;;;;;;;;;14.00;51.00;;;;;;5019192;28;19936;-77
2024/02/15 06:13:00;;;;;;;;;;;14.00;51.10;;;;;;5013099;28;19929;-78
2024/02/15 06:15:28;;;;;;;;;;;14.00;51.20;;;;;;5009735;28;19956;-75
2024/02/15 06:17:57;;;;;;;;;;;14.00;51.10;;;;;;5013373;28;19944;-78
2024/02/15 06:20:29;;;;;;;;;;;14.10;51.00;;;;;;5014762;28;19929;-77
2024/02/15 06:22:57;;;;;;;;;;;14.10;51.00;;;;;;5009819;28;19933;-78
2024/02/15 06:25:25;;;;;;;;;;;14.10;50.90;;;;;;5018595;28;19972;-77
2024/02/15 06:27:58;;;;;;;;;;;14.10;50.90;;;;;;5009412;28;20020;-77
2024/02/15 06:41:48;;;;;;;;;;;14.00;51.10;;;;;;5010047;28;19975;-78
2024/02/15 06:44:16;;;;;;;;;;;14.00;51.20;;;;;;4957615;28;19933;-77
2024/02/15 06:46:46;;;;;;;;;;;14.00;51.20;;;;;;5011396;28;20011;-73
2024/02/15 06:49:14;;;;;;;;;;;14.10;51.50;;;;;;5025332;28;19938;-71
2024/02/15 06:51:43;;;;;;;;;;;14.10;51.00;;;;;;5008187;28;19939;-72
2024/02/15 06:54:15;;;;;;;;;;;14.20;51.10;;;;;;5008199;28;19929;-70
2024/02/15 06:56:44;;;;;;;;;;;14.20;51.10;;;;;;5025448;28;20044;-63
2024/02/15 06:59:14;;;;;;;;;;;14.30;51.00;;;;;;4999660;28;19937;-68
2024/02/15 07:01:42;;;;;;;;;;;14.30;50.90;;;;;;5004879;28;19933;-64
2024/02/15 07:04:12;;;;;;;;;;;14.40;51.00;;;;;;5007187;28;19956;-63
2024/02/15 07:06:44;;;;;;;;;;;14.40;51.00;;;;;;5008057;28;20319;-65
2024/02/15 07:09:14;;;;;;;;;;;14.50;51.00;;;;;;5001191;28;19933;-64
2024/02/15 07:11:43;;;;;;;;;;;14.60;51.00;;;;;;5012653;28;19929;-64
2024/02/15 07:14:15;;;;;;;;;;;14.70;50.90;;;;;;5006102;28;20621;-65
2024/02/15 07:16:45;;;;;;;;;;;14.70;50.80;;;;;;5009317;28;19929;-63
2024/02/15 07:19:15;;;;;;;;;;;14.80;50.80;;;;;;5008208;28;19936;-63
2024/02/15 07:21:44;;;;;;;;;;;14.80;50.80;;;;;;5010276;28;19929;-64
2024/02/15 07:24:12;;;;;;;;;;;14.80;50.80;;;;;;5014965;28;19933;-63
2024/02/15 07:26:40;;;;;;;;;;;14.80;50.80;;;;;;5011776;28;19933;-68
2024/02/15 07:29:09;;;;;;;;;;;14.90;51.00;;;;;;5010958;28;19961;-64
2024/02/15 07:31:38;;;;;;;;;;;15.00;50.90;;;;;;5014429;28;20028;-64
2024/02/15 07:34:08;;;;;;;;;;;15.10;50.90;;;;;;5004443;28;19952;-63
2024/02/15 07:36:41;;;;;;;;;;;15.20;50.80;;;;;;5004999;28;22451;-63
2024/02/15 07:39:12;;;;;;;;;;;15.30;50.70;;;;;;5018073;28;19935;-63
2024/02/15 07:41:42;;;;;;;;;;;15.30;50.60;;;;;;5007621;28;19957;-63
2024/02/15 07:44:11;;;;;;;;;;;15.30;50.40;;;;;;5016141;28;19940;-62
2024/02/15 07:46:40;;;;;;;;;;;15.20;50.60;;;;;;5008542;28;19936;-62
2024/02/15 07:49:08;;;;;;;;;;;15.20;50.70;;;;;;5019384;28;20454;-62
2024/02/15 07:51:37;;;;;;;;;;;15.30;50.70;;;;;;5012349;28;19925;-62
2024/02/15 07:54:06;;;;;;;;;;;15.40;50.90;;;;;;5013033;28;19929;-63
2024/02/15 07:56:34;;;;;;;;;;;15.60;50.80;;;;;;5013894;28;19936;-62
2024/02/15 07:59:03;;;;;;;;;;;15.80;50.70;;;;;;5017398;28;19929;-62
2024/02/15 08:01:32;;;;;;;;;;;16.00;50.80;;;;;;5002742;28;19933;-62
2024/02/15 08:04:00;;;;;;;;;;;16.20;50.60;;;;;;5014765;28;20378;-63
2024/02/15 08:06:31;;;;;;;;;;;16.30;50.30;;;;;;5010973;28;19929;-61
2024/02/15 08:09:03;;;;;;;;;;;16.40;50.30;;;;;;5015228;28;20017;-62
2024/02/15 08:11:31;;;;;;;;;;;16.50;50.30;;;;;;5003697;28;20308;-61
2024/02/15 08:13:59;;;;;;;;;;;16.70;50.30;;;;;;5024925;28;19935;-62
2024/02/15 08:16:28;;;;;;;;;;;16.80;50.10;;;;;;5012748;28;19929;-61
2024/02/15 08:18:56;;;;;;;;;;;16.80;49.80;;;;;;5014570;28;19940;-64
2024/02/15 08:21:29;;;;;;;;;;;16.80;49.80;;;;;;5011301;28;19976;-62
2024/02/15 08:23:58;;;;;;;;;;;16.90;49.90;;;;;;5004739;28;19925;-62
2024/02/15 08:26:29;;;;;;;;;;;17.00;50.00;;;;;;5014333;28;19936;-62
2024/02/15 08:28:57;;;;;;;;;;;17.20;50.20;;;;;;5013514;28;19987;-64
2024/02/15 08:31:26;;;;;;;;;;;17.20;49.70;;;;;;5006142;28;20025;-61
2024/02/15 08:33:54;;;;;;;;;;;17.20;49.80;;;;;;5015129;28;20004;-63
2024/02/15 08:36:22;;;;;;;;;;;17.50;50.50;;;;;;5004737;28;20020;-62
2024/02/15 08:38:50;;;;;;;;;;;18.10;50.70;;;;;;5010048;28;22319;-62
2024/02/15 08:41:20;;;;;;;;;;;18.50;49.80;;;;;;5010744;28;19929;-63
2024/02/15 08:43:50;;;;;;;;;;;18.70;49.40;;;;;;5016072;28;19968;-64
2024/02/15 08:46:19;;;;;;;;;;;19.00;49.50;;;;;;5013701;28;20353;-63
2024/02/15 08:48:47;;;;;;;;;;;19.50;49.60;;;;;;5014296;28;19929;-63
2024/02/15 08:51:16;;;;;;;;;;;20.10;49.70;;;;;;5008337;28;20347;-64
2024/02/15 08:53:45;;;;;;;;;;;20.60;48.80;;;;;;5006936;28;20016;-62
2024/02/15 08:56:13;;;;;;;;;;;20.80;48.20;;;;;;5008239;28;19925;-62
2024/02/15 08:58:42;;;;;;;;;;;20.80;48.00;;;;;;5011361;28;21151;-61
2024/02/15 09:01:13;;;;;;;;;;;21.00;48.00;;;;;;5008494;28;19929;-62
2024/02/15 09:03:45;;;;;;;;;;;21.30;47.60;;;;;;5008101;28;19929;-62
2024/02/15 09:06:13;;;;;;;;;;;21.60;47.50;;;;;;5011259;28;19933;-62
2024/02/15 09:08:42;;;;;;;;;;;22.20;47.40;;;;;;5008770;28;19937;-62
2024/02/15 09:11:12;;;;;;;;;;;22.80;47.30;;;;;;5007923;28;20542;-63
2024/02/15 09:13:41;;;;;;;;;;;23.10;46.80;;;;;;5005567;28;19929;-63
2024/02/15 09:16:12;;;;;;;;;;;23.40;46.40;;;;;;5009956;28;19933;-66
2024/02/15 09:18:45;;;;;;;;;;;23.50;46.30;;;;;;5013022;28;20019;-63
2024/02/15 09:21:14;;;;;;;;;;;23.60;46.30;;;;;;5008614;28;19926;-62
2024/02/15 09:23:42;;;;;;;;;;;23.90;45.90;;;;;;5014245;28;20027;-61
2024/02/15 09:26:10;;;;;;;;;;;24.20;46.00;;;;;;5011027;28;19936;-60
2024/02/15 09:28:40;;;;;;;;;;;24.70;45.70;;;;;;5005997;28;19941;-62
2024/02/15 09:31:11;;;;;;;;;;;25.20;45.50;;;;;;5010041;28;19973;-62
2024/02/15 09:33:41;;;;;;;;;;;25.80;45.60;;;;;;5011422;28;20697;-62
2024/02/15 09:36:10;;;;;;;;;;;26.50;45.50;;;;;;5010776;28;20664;-61
2024/02/15 09:38:38;;;;;;;;;;;26.90;44.90;;;;;;5011926;28;20033;-62
2024/02/15 09:41:07;;;;;;;;;;;27.20;44.50;;;;;;5010344;28;20365;-63
2024/02/15 09:43:36;;;;;;;;;;;27.50;44.20;;;;;;5016937;28;20035;-64
2024/02/15 09:46:04;;;;;;;;;;;27.60;43.80;;;;;;5009369;28;19929;-66
2024/02/15 09:48:33;;;;;;;;;;;27.60;43.60;;;;;;5009319;28;20638;-62
2024/02/15 09:51:03;;;;;;;;;;;27.70;43.80;;;;;;5011512;28;20028;-63
2024/02/15 09:53:32;;;;;;;;;;;28.00;44.10;;;;;;5011635;28;19936;-61
2024/02/15 09:56:04;;;;;;;;;;;28.30;43.40;;;;;;5011066;28;19929;-62
2024/02/15 09:58:34;;;;;;;;;;;28.30;43.10;;;;;;5008572;28;20358;-63
2024/02/15 10:01:06;;;;;;;;;;;28.30;43.40;;;;;;5010522;28;19929;-65
2024/02/15 10:03:34;;;;;;;;;;;28.40;43.20;;;;;;5010267;28;20017;-63
2024/02/15 10:06:05;;;;;;;;;;;28.40;43.10;;;;;;5009462;28;19995;-65
2024/02/15 10:08:34;;;;;;;;;;;28.40;43.10;;;;;;5012989;28;20436;-65
2024/02/15 10:11:09;;;;;;;;;;;28.50;43.40;;;;;;5013603;28;20029;-63
2024/02/15 10:13:39;;;;;;;;;;;28.70;43.30;;;;;;5031205;28;19988;-62
2024/02/15 10:16:18;;;;;;;;;;;29.10;43.50;;;;;;5013247;28;19925;-62
2024/02/15 10:18:47;;;;;;;;;;;29.30;42.80;;;;;;5016757;28;20154;-62
2024/02/15 10:21:29;;;;;;;;;;;29.40;42.70;;;;;;5015352;28;20048;-64
2024/02/15 10:24:06;;;;;;;;;;;29.50;42.80;;;;;;5017604;28;19925;-63
2024/02/15 10:26:36;;;;;;;;;;;29.60;42.70;;;;;;5007598;28;21015;-63
2024/02/15 10:29:10;;;;;;;;;;;29.70;42.50;;;;;;5013249;28;19933;-62
2024/02/15 10:31:40;;;;;;;;;;;29.80;42.30;;;;;;5015298;28;19929;-64
2024/02/15 10:34:08;;;;;;;;;;;30.10;42.50;;;;;;5016215;28;19932;-62
2024/02/15 10:36:39;;;;;;;;;;;30.40;42.60;;;;;;5009282;28;19936;-65
2024/02/15 10:39:16;;;;;;;;;;;30.80;42.20;;;;;;5017755;28;19979;-62
2024/02/15 10:41:47;;;;;;;;;;;30.90;41.60;;;;;;5013394;28;20375;-66
2024/02/15 10:44:17;;;;;;;;;;;31.00;41.60;;;;;;5011592;28;19930;-62
2024/02/15 10:46:51;;;;;;;;;;;30.90;41.40;;;;;;5014597;28;20411;-62
2024/02/15 10:49:20;;;;;;;;;;;31.00;41.00;;;;;;5011460;28;20587;-66
2024/02/15 10:51:55;;;;;;;;;;;30.70;40.60;;;;;;5017246;28;20322;-62
2024/02/15 10:54:37;;;;;;;;;;;30.70;41.00;;;;;;5005237;28;20124;-62
2024/02/15 10:57:06;;;;;;;;;;;30.70;41.10;;;;;;5012403;28;20042;-66
2024/02/15 10:59:37;;;;;;;;;;;30.60;40.70;;;;;;5015902;28;19965;-62
2024/02/15 11:02:16;;;;;;;;;;;30.30;40.90;;;;;;5013584;28;19980;-66
2024/02/15 11:04:48;;;;;;;;;;;30.10;41.00;;;;;;5011613;28;19925;-62
2024/02/15 11:07:18;;;;;;;;;;;30.10;41.20;;;;;;5014814;28;19929;-62
2024/02/15 11:09:52;;;;;;;;;;;29.90;41.00;;;;;;5011123;28;20020;-60
2024/02/15 11:12:20;;;;;;;;;;;29.60;40.60;;;;;;5003021;28;19933;-61
2024/02/15 11:14:49;;;;;;;;;;;29.10;41.00;;;;;;5016318;28;19933;-64
2024/02/15 11:17:32;;;;;;;;;;;28.90;41.50;;;;;;5012890;28;20375;-63
2024/02/15 11:20:00;;;;;;;;;;;28.80;41.80;;;;;;5014020;28;19929;-63
2024/02/15 11:22:30;;;;;;;;;;;28.80;42.00;;;;;;5007059;28;20042;-64
2024/02/15 11:24:58;;;;;;;;;;;28.70;41.80;;;;;;5016722;28;19926;-64
2024/02/15 11:27:29;;;;;;;;;;;28.40;42.00;;;;;;5011535;28;20363;-61
2024/02/15 11:30:03;;;;;;;;;;;28.00;42.30;;;;;;5010845;28;19939;-63
2024/02/15 11:32:34;;;;;;;;;;;27.50;42.30;;;;;;5000385;28;20284;-62
2024/02/15 11:35:10;;;;;;;;;;;26.60;42.60;;;;;;5014070;28;19944;-62
2024/02/15 11:37:55;;;;;;;;;;;25.70;43.00;;;;;;5013540;28;20036;-62
2024/02/15 11:40:25;;;;;;;;;;;24.90;43.70;;;;;;5007288;28;20025;-61
2024/02/15 11:42:54;;;;;;;;;;;24.30;44.60;;;;;;5012413;28;19925;-61
2024/02/15 11:45:22;;;;;;;;;;;23.80;45.00;;;;;;5014049;28;19937;-65
2024/02/15 11:47:51;;;;;;;;;;;23.30;45.30;;;;;;5011451;28;20709;-61
2024/02/15 11:50:21;;;;;;;;;;;22.90;45.80;;;;;;5004555;28;19935;-61
2024/02/15 11:52:49;;;;;;;;;;;22.70;46.30;;;;;;5015629;28;19925;-60
2024/02/15 11:55:22;;;;;;;;;;;22.40;46.40;;;;;;5011045;28;19935;-61
2024/02/15 11:58:02;;;;;;;;;;;22.20;46.60;;;;;;5011113;28;19936;-61
2024/02/15 12:19:57;;;;;;;;;;;21.50;47.30;;;;;;5010726;28;19929;-61
2024/02/15 12:22:26;;;;;;;;;;;21.40;47.50;;;;;;5004406;28;19932;-61
2024/02/15 12:24:55;;;;;;;;;;;21.30;47.50;;;;;;5008972;28;19964;-61
2024/02/15 12:27:27;;;;;;;;;;;21.20;47.50;;;;;;5012581;28;19936;-63
2024/02/15 12:29:57;;;;;;;;;;;21.20;47.60;;;;;;5003743;28;20053;-62
2024/02/15 12:32:26;;;;;;;;;;;21.20;47.60;;;;;;5001450;28;19980;-62
2024/02/15 12:35:10;;;;;;;;;;;21.20;47.70;;;;;;5012431;28;19929;-61
2024/02/15 12:37:40;;;;;;;;;;;21.20;47.70;;;;;;5011457;28;20018;-64
2024/02/15 12:40:15;;;;;;;;;;;21.20;48.30;;;;;;5006973;28;19994;-61
2024/02/15 12:42:46;;;;;;;;;;;21.20;47.70;;;;;;5004888;28;19972;-61
2024/02/15 12:45:17;;;;;;;;;;;21.10;47.60;;;;;;5006761;28;19936;-61
2024/02/15 12:47:49;;;;;;;;;;;21.10;47.80;;;;;;5008537;28;19983;-61
2024/02/15 12:50:19;;;;;;;;;;;21.10;47.90;;;;;;5007807;28;20063;-62
2024/02/15 12:52:49;;;;;;;;;;;21.20;48.00;;;;;;5002550;28;19983;-63
2024/02/15 12:55:19;;;;;;;;;;;21.20;48.00;;;;;;5008120;28;20067;-60
2024/02/15 12:57:51;;;;;;;;;;;21.30;48.00;;;;;;5008063;28;20442;-64
2024/02/15 13:00:21;;;;;;;;;;;21.40;48.00;;;;;;5006724;28;20028;-61
2024/02/15 13:02:51;;;;;;;;;;;21.50;48.00;;;;;;4997012;28;19936;-62
2024/02/15 13:05:19;;;;;;;;;;;21.60;47.70;;;;;;5006543;28;20346;-60
2024/02/15 13:07:49;;;;;;;;;;;21.70;47.80;;;;;;5004275;28;20316;-65
2024/02/15 13:10:19;;;;;;;;;;;21.80;47.80;;;;;;5002624;28;21503;-61
2024/02/15 13:12:47;;;;;;;;;;;21.90;47.80;;;;;;4996390;28;19960;-62
2024/02/15 13:15:17;;;;;;;;;;;22.10;47.90;;;;;;5010380;28;20304;-60
2024/02/15 13:17:48;;;;;;;;;;;22.20;47.70;;;;;;5005931;28;20387;-63
2024/02/15 13:20:20;;;;;;;;;;;22.30;47.90;;;;;;5009906;28;20010;-65
2024/02/15 13:22:48;;;;;;;;;;;22.40;47.60;;;;;;5003194;28;19936;-63
2024/02/15 13:25:17;;;;;;;;;;;22.40;47.50;;;;;;5009790;28;19929;-61
2024/02/15 13:27:46;;;;;;;;;;;22.50;47.50;;;;;;5010627;28;19932;-61
2024/02/15 13:30:14;;;;;;;;;;;22.50;47.50;;;;;;5009621;28;19937;-62
2024/02/15 13:32:44;;;;;;;;;;;22.50;47.30;;;;;;5010309;28;20299;-61
2024/02/15 13:35:13;;;;;;;;;;;22.50;47.40;;;;;;5001739;28;19933;-61
2024/02/15 13:37:44;;;;;;;;;;;22.60;47.50;;;;;;5006975;28;20414;-60
2024/02/15 13:40:16;;;;;;;;;;;22.70;47.40;;;;;;5011417;28;19929;-63
2024/02/15 13:42:49;;;;;;;;;;;22.70;47.40;;;;;;5021772;28;20459;-62
2024/02/15 13:45:25;;;;;;;;;;;22.80;47.40;;;;;;5012360;28;19935;-62
2024/02/15 13:47:57;;;;;;;;;;;23.00;47.60;;;;;;5013259;28;19933;-60
2024/02/15 13:50:29;;;;;;;;;;;23.00;47.40;;;;;;5014410;28;20387;-61
2024/02/15 13:53:02;;;;;;;;;;;23.10;47.40;;;;;;5018430;28;19929;-61
2024/02/15 13:55:36;;;;;;;;;;;23.20;47.40;;;;;;5012864;28;19932;-61
2024/02/15 13:58:04;;;;;;;;;;;23.20;47.30;;;;;;5016026;28;19930;-63
2024/02/15 14:00:33;;;;;;;;;;;23.20;47.30;;;;;;5013395;28;19930;-61
2024/02/15 14:03:06;;;;;;;;;;;23.20;47.30;;;;;;5016144;28;19937;-60
2024/02/15 14:05:35;;;;;;;;;;;23.30;47.90;;;;;;5009040;28;19930;-64
2024/02/15 14:08:05;;;;;;;;;;;23.30;47.00;;;;;;5007559;28;19983;-61
2024/02/15 14:10:34;;;;;;;;;;;23.20;47.10;;;;;;5008034;28;19929;-62
2024/02/15 14:13:05;;;;;;;;;;;23.20;47.20;;;;;;5015728;28;19940;-61
2024/02/15 14:15:37;;;;;;;;;;;23.10;47.20;;;;;;5008433;28;20024;-62
2024/02/15 14:18:07;;;;;;;;;;;23.00;47.20;;;;;;5013767;28;19929;-62
2024/02/15 14:20:36;;;;;;;;;;;22.90;47.20;;;;;;5016355;28;20400;-62
2024/02/15 14:23:05;;;;;;;;;;;22.80;47.20;;;;;;5007042;28;19929;-61
2024/02/15 14:25:35;;;;;;;;;;;22.70;47.20;;;;;;5002392;28;19930;-62
2024/02/15 14:28:05;;;;;;;;;;;22.60;47.30;;;;;;5018490;28;20024;-64
2024/02/15 14:33:22;;;;;;;;;;;22.40;47.30;;;;;;5012405;28;19929;-62
2024/02/15 14:35:53;;;;;;;;;;;22.30;47.40;;;;;;5005784;28;19940;-62
2024/02/15 14:38:22;;;;;;;;;;;22.10;47.80;;;;;;5015868;28;19929;-66
2024/02/15 14:40:53;;;;;;;;;;;22.10;47.60;;;;;;5009447;28;19969;-64
2024/02/15 14:43:22;;;;;;;;;;;22.00;47.60;;;;;;5011707;28;20283;-61
2024/02/15 14:45:51;;;;;;;;;;;21.90;47.60;;;;;;5001748;28;19940;-61
2024/02/15 14:48:21;;;;;;;;;;;21.80;47.60;;;;;;5013046;28;19933;-62
2024/02/15 14:50:50;;;;;;;;;;;21.70;47.60;;;;;;5013752;28;19956;-61
2024/02/15 14:53:20;;;;;;;;;;;21.70;47.70;;;;;;5015076;28;20276;-61
2024/02/15 14:55:49;;;;;;;;;;;21.60;47.70;;;;;;5004460;28;20390;-60
2024/02/15 14:58:18;;;;;;;;;;;21.50;47.70;;;;;;5006537;28;20350;-62
2024/02/15 15:00:47;;;;;;;;;;;21.40;47.90;;;;;;5011272;28;19948;-61
2024/02/15 15:03:16;;;;;;;;;;;21.40;47.90;;;;;;5016356;28;19939;-63
2024/02/15 15:14:20;;;;;;;;;;;21.20;48.00;;;;;;4972640;28;19934;-62